createdAt,value
2019-03-20T00:02:12.269Z,2.80
2019-03-20T00:04:49.803Z,2.93
2019-03-20T00:07:14.435Z,2.30
2019-03-20T00:09:44.761Z,2.63
2019-03-20T00:12:15.286Z,2.43
2019-03-20T00:14:45.607Z,3.40
2019-03-20T00:17:15.934Z,2.23
2019-03-20T00:19:46.259Z,2.37
2019-03-20T00:22:16.580Z,2.80
2019-03-20T00:24:46.904Z,2.80
2019-03-20T00:27:17.150Z,2.60
2019-03-20T00:29:47.448Z,3.57
2019-03-20T00:32:17.674Z,3.13
2019-03-20T00:34:47.994Z,2.47
2019-03-20T00:37:18.297Z,2.30
2019-03-20T00:39:48.498Z,2.63
2019-03-20T00:42:19.581Z,3.90
2019-03-20T00:44:49.908Z,3.27
2019-03-20T00:47:20.740Z,3.00
2019-03-20T00:49:51.108Z,3.00
2019-03-20T00:52:21.492Z,3.40
2019-03-20T00:54:51.632Z,4.00
2019-03-20T00:57:23.062Z,2.80
2019-03-20T00:59:53.386Z,3.20
2019-03-20T01:02:23.710Z,3.20
2019-03-20T01:04:54.032Z,3.53
2019-03-20T01:07:24.252Z,2.70
2019-03-20T01:09:54.498Z,3.10
2019-03-20T01:12:24.907Z,2.60
2019-03-20T01:14:55.228Z,3.60
2019-03-20T01:17:25.447Z,3.73
2019-03-20T01:19:55.770Z,3.50
2019-03-20T01:22:26.100Z,3.70
2019-03-20T01:24:56.419Z,3.50
2019-03-20T01:27:26.660Z,3.60
2019-03-20T01:29:56.860Z,3.60
2019-03-20T01:32:27.184Z,3.03
2019-03-20T01:34:57.508Z,3.60
2019-03-20T01:37:27.834Z,3.63
2019-03-20T01:39:58.160Z,3.50
2019-03-20T01:42:28.480Z,3.30
2019-03-20T01:44:58.819Z,4.43
2019-03-20T01:47:29.136Z,3.50
2019-03-20T01:49:59.455Z,3.80
2019-03-20T01:52:30.016Z,3.40
2019-03-20T01:55:00.449Z,2.90
2019-03-20T01:57:30.835Z,3.63
2019-03-20T02:00:01.055Z,2.83
2019-03-20T02:02:31.284Z,3.70
2019-03-20T02:05:01.607Z,3.10
2019-03-20T02:07:31.923Z,3.90
2019-03-20T02:10:04.686Z,3.93
2019-03-20T02:12:34.980Z,3.27
2019-03-20T02:15:15.099Z,3.57
2019-03-20T02:17:47.009Z,3.13
2019-03-20T02:20:20.059Z,2.90
2019-03-20T02:22:54.254Z,3.10
2019-03-20T02:25:24.323Z,3.23
2019-03-20T02:27:54.533Z,3.57
2019-03-20T02:30:24.595Z,2.70
2019-03-20T02:32:54.774Z,3.53
2019-03-20T02:35:25.151Z,3.73
2019-03-20T02:37:55.473Z,3.10
2019-03-20T02:40:25.830Z,2.30
2019-03-20T02:42:56.953Z,3.60
2019-03-20T02:45:27.266Z,3.03
2019-03-20T02:47:57.590Z,2.87
2019-03-20T02:50:27.913Z,3.40
2019-03-20T02:52:58.243Z,4.20
2019-03-20T02:55:28.765Z,2.83
2019-03-20T02:57:59.091Z,3.27
2019-03-20T03:00:29.412Z,3.43
2019-03-20T03:02:59.738Z,3.60
2019-03-20T03:05:30.063Z,3.70
2019-03-20T03:08:00.388Z,3.17
2019-03-20T03:10:30.922Z,3.53
2019-03-20T03:13:01.316Z,4.10
2019-03-20T03:15:31.561Z,5.83
2019-03-20T03:18:01.886Z,5.57
2019-03-20T03:20:32.213Z,3.67
2019-03-20T03:23:05.603Z,4.07
2019-03-20T03:25:36.471Z,3.47
2019-03-20T03:28:07.104Z,4.83
2019-03-20T03:30:37.602Z,4.73
2019-03-20T03:33:07.946Z,3.60
2019-03-20T03:35:38.250Z,3.67
2019-03-20T03:38:08.572Z,4.47
2019-03-20T03:40:40.335Z,4.10
2019-03-20T03:43:10.653Z,4.00
2019-03-20T03:45:40.898Z,3.20
2019-03-20T03:48:11.098Z,3.73
2019-03-20T03:50:41.422Z,4.33
2019-03-20T03:53:11.767Z,5.37
2019-03-20T03:55:42.074Z,3.83
2019-03-20T03:58:12.296Z,4.23
2019-03-20T04:00:42.614Z,4.40
2019-03-20T04:03:12.943Z,4.27
2019-03-20T04:05:43.264Z,4.57
2019-03-20T04:08:13.794Z,5.10
2019-03-20T04:10:44.113Z,4.83
2019-03-20T04:13:14.642Z,4.80
2019-03-20T04:15:45.277Z,4.60
2019-03-20T04:18:17.037Z,4.90
2019-03-20T04:20:47.263Z,4.93
2019-03-20T04:23:17.590Z,5.50
2019-03-20T04:25:47.902Z,6.63
2019-03-20T04:28:18.123Z,6.70
2019-03-20T04:30:48.445Z,6.00
2019-03-20T04:33:18.788Z,6.23
2019-03-20T04:35:48.992Z,6.40
2019-03-20T04:38:19.335Z,6.70
2019-03-20T04:40:49.638Z,7.53
2019-03-20T04:43:19.761Z,8.23
2019-03-20T04:45:50.716Z,7.10
2019-03-20T04:48:21.029Z,7.23
2019-03-20T04:50:51.346Z,8.07
2019-03-20T04:53:21.685Z,7.70
2019-03-20T04:55:52.008Z,9.73
2019-03-20T04:58:22.214Z,10.67
2019-03-20T05:00:52.439Z,10.20
2019-03-20T05:03:22.764Z,10.20
2019-03-20T05:05:53.088Z,10.43
2019-03-20T05:08:23.408Z,10.03
2019-03-20T05:10:53.731Z,14.67
2019-03-20T05:13:24.054Z,80.70
2019-03-20T05:15:54.590Z,65.93
2019-03-20T05:18:24.911Z,89.10
2019-03-20T05:20:55.231Z,79.23
2019-03-20T05:23:25.555Z,61.93
2019-03-20T05:25:55.884Z,63.60
2019-03-20T05:28:26.204Z,55.57
2019-03-20T05:30:56.530Z,50.90
2019-03-20T05:33:26.755Z,44.17
2019-03-20T05:35:56.973Z,44.30
2019-03-20T05:38:27.401Z,40.97
2019-03-20T05:40:57.718Z,38.50
2019-03-20T05:43:28.055Z,33.40
2019-03-20T05:46:00.367Z,35.00
2019-03-20T05:48:30.139Z,31.10
2019-03-20T05:51:00.369Z,32.30
2019-03-20T05:53:30.773Z,29.80
2019-03-20T05:56:01.017Z,30.70
2019-03-20T05:58:31.422Z,28.23
2019-03-20T06:01:01.950Z,28.73
2019-03-20T06:03:32.274Z,29.30
2019-03-20T06:06:02.802Z,31.00
2019-03-20T06:08:33.128Z,31.80
2019-03-20T06:11:03.451Z,31.70
2019-03-20T06:13:33.785Z,32.73
2019-03-20T06:16:04.098Z,34.17
2019-03-20T06:18:34.421Z,32.40
2019-03-20T06:21:04.563Z,34.73
2019-03-20T06:23:34.968Z,38.80
2019-03-20T06:26:05.423Z,36.63
2019-03-20T06:28:35.630Z,36.00
2019-03-20T06:31:05.946Z,38.23
2019-03-20T06:33:36.263Z,37.50
2019-03-20T06:36:06.703Z,37.50
2019-03-20T06:38:36.913Z,37.97
2019-03-20T06:41:07.241Z,35.50
2019-03-20T06:43:37.768Z,38.10
2019-03-20T06:46:08.090Z,37.10
2019-03-20T06:48:39.359Z,37.43
2019-03-20T06:51:09.558Z,35.60
2019-03-20T06:53:39.913Z,37.23
2019-03-20T06:56:10.411Z,38.37
2019-03-20T06:58:40.633Z,32.77
2019-03-20T07:01:16.434Z,37.90
2019-03-20T07:03:52.751Z,41.70
2019-03-20T07:06:43.859Z,37.87
2019-03-20T07:09:25.856Z,37.43
2019-03-20T07:11:56.182Z,43.20
2019-03-20T07:14:26.505Z,38.60
2019-03-20T07:16:58.058Z,35.80
2019-03-20T07:19:28.242Z,39.97
2019-03-20T07:21:58.604Z,40.80
2019-03-20T07:24:29.131Z,44.47
2019-03-20T07:26:59.458Z,38.40
2019-03-20T07:29:29.779Z,39.70
2019-03-20T07:32:00.472Z,43.50
2019-03-20T07:34:31.562Z,48.23
2019-03-20T07:37:09.667Z,44.57
2019-03-20T07:39:44.703Z,46.17
2019-03-20T07:42:15.227Z,42.00
2019-03-20T07:44:47.108Z,48.37
2019-03-20T07:47:17.628Z,47.70
2019-03-20T07:49:47.864Z,48.40
2019-03-20T07:52:18.265Z,50.40
2019-03-20T07:54:48.585Z,50.77
2019-03-20T07:57:18.911Z,52.80
2019-03-20T07:59:49.230Z,52.37
2019-03-20T08:02:19.455Z,45.00
2019-03-20T08:04:49.983Z,51.03
2019-03-20T08:07:30.626Z,49.30
2019-03-20T08:10:01.692Z,51.83
2019-03-20T08:12:33.699Z,52.87
2019-03-20T08:15:05.583Z,51.20
2019-03-20T08:17:36.040Z,51.83
2019-03-20T08:20:09.439Z,50.90
2019-03-20T08:22:39.741Z,45.00
2019-03-20T08:25:12.483Z,55.23
2019-03-20T08:27:42.660Z,51.30
2019-03-20T08:30:17.103Z,47.30
2019-03-20T08:32:48.709Z,54.40
2019-03-20T08:35:29.609Z,50.53
2019-03-20T08:38:00.035Z,52.50
2019-03-20T08:40:30.395Z,53.67
2019-03-20T08:43:00.886Z,55.97
2019-03-20T08:45:31.221Z,54.50
2019-03-20T08:48:01.543Z,57.73
2019-03-20T08:50:32.215Z,50.37
2019-03-20T08:53:06.573Z,52.73
2019-03-20T08:55:37.014Z,53.23
2019-03-20T08:58:17.791Z,49.20
2019-03-20T09:00:56.100Z,52.63
2019-03-20T09:03:26.314Z,50.20
2019-03-20T09:05:56.639Z,53.17
2019-03-20T09:08:29.824Z,49.70
2019-03-20T09:10:59.127Z,46.10
2019-03-20T09:13:29.258Z,52.80
2019-03-20T09:15:59.475Z,51.60
2019-03-20T09:18:29.897Z,51.23
2019-03-20T09:21:00.122Z,52.10
2019-03-20T09:23:30.439Z,48.30
2019-03-20T09:26:00.771Z,48.77
2019-03-20T09:28:31.089Z,48.40
2019-03-20T09:31:01.619Z,46.83
2019-03-20T09:33:31.800Z,49.00
2019-03-20T09:36:02.068Z,47.30
2019-03-20T09:38:42.707Z,47.83
2019-03-20T09:41:04.551Z,49.17
2019-03-20T09:43:34.879Z,46.80
2019-03-20T09:46:05.205Z,42.53
2019-03-20T09:48:35.528Z,46.80
2019-03-20T09:51:06.056Z,47.50
2019-03-20T09:53:36.370Z,42.90
2019-03-20T09:56:07.214Z,44.77
2019-03-20T09:58:37.542Z,45.97
2019-03-20T10:01:07.862Z,47.30
2019-03-20T10:03:38.596Z,45.60
2019-03-20T10:06:09.025Z,46.60
2019-03-20T10:08:39.344Z,48.07
2019-03-20T10:11:09.565Z,46.53
2019-03-20T10:13:43.012Z,51.47
2019-03-20T10:16:16.430Z,47.63
2019-03-20T10:18:47.298Z,46.67
2019-03-20T10:21:17.620Z,50.40
2019-03-20T10:23:48.046Z,47.50
2019-03-20T10:26:18.371Z,50.00
2019-03-20T10:28:48.900Z,47.07
2019-03-20T10:31:19.222Z,46.40
2019-03-20T10:33:49.728Z,50.70
2019-03-20T10:36:19.916Z,49.33
2019-03-20T10:38:50.364Z,47.33
2019-03-20T10:41:20.640Z,47.43
2019-03-20T10:43:52.315Z,48.10
2019-03-20T10:46:22.806Z,49.40
2019-03-20T10:48:53.132Z,47.13
2019-03-20T10:51:23.660Z,44.80
2019-03-20T10:53:53.991Z,47.20
2019-03-20T10:56:24.516Z,47.00
2019-03-20T10:58:54.747Z,47.07
2019-03-20T11:01:25.066Z,50.97
2019-03-20T11:03:55.384Z,45.50
2019-03-20T11:06:25.707Z,47.50
2019-03-20T11:08:55.927Z,48.63
2019-03-20T11:11:27.251Z,47.10
2019-03-20T11:13:58.031Z,45.90
2019-03-20T11:16:31.205Z,51.40
2019-03-20T11:19:01.730Z,50.37
2019-03-20T11:21:31.949Z,44.50
2019-03-20T11:24:02.375Z,49.47
2019-03-20T11:26:32.704Z,47.57
2019-03-20T11:29:03.230Z,45.00
2019-03-20T11:31:34.417Z,46.10
2019-03-20T11:34:04.901Z,45.47
2019-03-20T11:36:35.228Z,45.67
2019-03-20T11:39:08.641Z,43.23
2019-03-20T11:41:38.946Z,46.70
2019-03-20T11:44:09.091Z,44.40
2019-03-20T11:46:39.598Z,44.03
2019-03-20T11:49:09.918Z,44.80
2019-03-20T11:51:40.241Z,41.53
2019-03-20T11:54:10.592Z,44.40
2019-03-20T11:56:41.094Z,40.13
2019-03-20T11:59:11.421Z,42.97
2019-03-20T12:01:42.153Z,39.20
2019-03-20T12:04:12.477Z,37.67
2019-03-20T12:06:42.812Z,39.30
2019-03-20T12:09:13.330Z,36.57
2019-03-20T12:11:46.096Z,33.47
2019-03-20T12:14:15.512Z,35.80
2019-03-20T12:16:48.934Z,38.80
2019-03-20T12:19:19.230Z,37.80
2019-03-20T12:21:49.572Z,35.60
2019-03-20T12:24:19.884Z,37.40
2019-03-20T12:26:51.390Z,35.07
2019-03-20T12:29:21.579Z,34.97
2019-03-20T12:31:52.193Z,33.60
2019-03-20T12:34:22.638Z,34.70
2019-03-20T12:36:53.016Z,34.50
2019-03-20T12:39:23.257Z,31.20
2019-03-20T12:41:53.580Z,32.20
2019-03-20T12:44:23.907Z,31.30
2019-03-20T12:46:54.230Z,30.30
2019-03-20T12:49:30.151Z,28.93
2019-03-20T12:52:06.970Z,31.20
2019-03-20T12:54:37.397Z,29.10
2019-03-20T12:57:07.925Z,27.67
2019-03-20T12:59:40.295Z,26.67
2019-03-20T13:02:13.737Z,27.13
2019-03-20T13:04:44.221Z,27.73
2019-03-20T13:07:17.175Z,26.47
2019-03-20T13:09:47.364Z,25.23
2019-03-20T13:12:17.494Z,28.17
2019-03-20T13:14:47.580Z,24.67
2019-03-20T13:17:17.883Z,22.60
2019-03-20T13:19:48.205Z,24.73
2019-03-20T13:22:18.555Z,22.53
2019-03-20T13:24:48.955Z,21.37
2019-03-20T13:27:19.427Z,19.90
2019-03-20T13:29:49.708Z,20.30
2019-03-20T13:32:20.566Z,22.40
2019-03-20T13:34:50.973Z,19.37
2019-03-20T13:37:21.296Z,21.00
2019-03-20T13:39:51.819Z,20.20
2019-03-20T13:42:22.041Z,17.93
2019-03-20T13:44:52.429Z,19.60
2019-03-20T13:47:22.689Z,18.97
2019-03-20T13:49:52.842Z,17.57
2019-03-20T13:52:23.060Z,16.30
2019-03-20T13:54:53.277Z,18.10
2019-03-20T13:57:23.783Z,15.57
2019-03-20T13:59:54.130Z,18.60
2019-03-20T14:02:24.539Z,18.67
2019-03-20T14:04:54.861Z,15.77
2019-03-20T14:07:25.182Z,15.47
2019-03-20T14:09:55.508Z,14.30
2019-03-20T14:12:25.955Z,13.73
2019-03-20T14:14:56.117Z,13.20
2019-03-20T14:17:26.202Z,14.40
2019-03-20T14:19:56.455Z,13.27
2019-03-20T14:22:26.713Z,12.80
2019-03-20T14:24:57.252Z,13.93
2019-03-20T14:27:27.470Z,13.50
2019-03-20T14:29:57.889Z,12.10
2019-03-20T14:32:28.220Z,11.27
2019-03-20T14:34:58.542Z,12.93
2019-03-20T14:37:28.863Z,12.33
2019-03-20T14:40:00.368Z,12.10
2019-03-20T14:42:30.767Z,11.60
2019-03-20T14:45:00.898Z,11.47
2019-03-20T14:47:41.625Z,13.47
2019-03-20T14:50:03.069Z,13.93
2019-03-20T14:52:33.469Z,13.27
2019-03-20T14:55:04.413Z,13.00
2019-03-20T14:57:34.833Z,13.27
2019-03-20T15:00:08.359Z,13.17
2019-03-20T15:02:38.552Z,11.30
2019-03-20T15:05:09.394Z,12.63
2019-03-20T15:07:39.919Z,12.40
2019-03-20T15:10:15.772Z,12.97
2019-03-20T15:12:46.301Z,14.10
2019-03-20T15:15:38.640Z,11.83
2019-03-20T15:18:08.965Z,15.00
2019-03-20T15:20:39.289Z,13.87
2019-03-20T15:23:09.616Z,12.60
2019-03-20T15:25:40.143Z,14.13
2019-03-20T15:28:10.682Z,13.17
2019-03-20T15:30:42.623Z,11.30
2019-03-20T15:33:13.920Z,34.33
2019-03-20T15:35:45.360Z,32.03
2019-03-20T15:38:15.755Z,24.40
2019-03-20T15:40:55.706Z,19.83
2019-03-20T15:43:20.875Z,18.27
2019-03-20T15:45:51.444Z,17.60
2019-03-20T15:48:23.632Z,16.27
2019-03-20T15:50:57.971Z,15.77
2019-03-20T15:53:28.458Z,17.13
2019-03-20T15:55:58.882Z,15.30
2019-03-20T15:58:29.408Z,14.20
2019-03-20T16:00:59.734Z,13.87
2019-03-20T16:03:32.922Z,13.50
2019-03-20T16:06:03.244Z,12.30
2019-03-20T16:08:34.942Z,13.17
2019-03-20T16:11:06.889Z,12.33
2019-03-20T16:13:37.327Z,11.43
2019-03-20T16:16:07.616Z,10.90
2019-03-20T16:18:37.938Z,10.27
2019-03-20T16:21:11.053Z,11.37
2019-03-20T16:23:41.864Z,12.77
2019-03-20T16:26:16.622Z,11.30
2019-03-20T16:29:07.021Z,11.47
2019-03-20T16:31:43.231Z,11.80
2019-03-20T16:34:18.349Z,11.90
2019-03-20T16:36:58.521Z,11.50
2019-03-20T16:39:36.859Z,11.43
2019-03-20T16:42:17.122Z,10.20
2019-03-20T16:44:48.075Z,10.47
2019-03-20T16:47:18.574Z,11.13
2019-03-20T16:49:48.753Z,9.57
2019-03-20T16:52:19.627Z,10.00
2019-03-20T16:54:50.161Z,10.37
2019-03-20T16:57:21.870Z,10.23
2019-03-20T16:59:52.447Z,9.33
2019-03-20T17:02:22.775Z,9.50
2019-03-20T17:04:53.095Z,9.37
2019-03-20T17:07:23.319Z,10.10
2019-03-20T17:09:53.643Z,11.63
2019-03-20T17:12:24.276Z,9.20
2019-03-20T17:14:54.923Z,10.57
2019-03-20T17:17:25.581Z,10.10
2019-03-20T17:19:59.310Z,10.27
2019-03-20T17:22:30.383Z,11.77
2019-03-20T17:25:00.625Z,9.90
2019-03-20T17:27:42.813Z,9.93
2019-03-20T17:30:36.896Z,11.10
2019-03-20T17:33:09.475Z,11.10
2019-03-20T17:35:50.035Z,13.17
2019-03-20T17:38:35.367Z,12.10
2019-03-20T17:41:15.249Z,10.20
2019-03-20T17:43:45.788Z,11.07
2019-03-20T17:46:17.428Z,12.20
2019-03-20T17:48:48.006Z,11.93
2019-03-20T17:51:18.491Z,15.20
2019-03-20T17:53:48.999Z,13.93
2019-03-20T17:56:19.601Z,12.50
2019-03-20T17:58:50.019Z,12.20
2019-03-20T18:01:20.431Z,13.10
2019-03-20T18:03:50.923Z,12.30
2019-03-20T18:06:21.434Z,13.40
2019-03-20T18:08:52.470Z,13.97
2019-03-20T18:11:23.034Z,12.67
2019-03-20T18:13:53.763Z,13.97
2019-03-20T18:16:27.522Z,13.13
2019-03-20T18:18:58.504Z,12.43
2019-03-20T18:21:30.351Z,11.83
2019-03-20T18:24:01.893Z,11.63
2019-03-20T18:26:32.328Z,12.87
2019-03-20T18:29:06.371Z,12.50
2019-03-20T18:31:45.907Z,14.00
2019-03-20T18:34:25.095Z,14.03
2019-03-20T18:37:04.204Z,13.60
2019-03-20T18:39:44.527Z,12.07
2019-03-20T18:45:53.762Z,13.60
2019-03-20T18:48:29.726Z,15.47
2019-03-20T18:51:13.799Z,13.53
2019-03-20T18:53:47.704Z,14.07
2019-03-20T18:56:19.504Z,14.47
2019-03-20T18:58:51.886Z,13.37
2019-03-20T19:01:25.422Z,13.50
2019-03-20T19:03:56.211Z,14.00
2019-03-20T19:06:31.605Z,13.93
2019-03-20T19:09:06.138Z,17.17
2019-03-20T19:11:38.401Z,15.37
2019-03-20T19:14:09.285Z,14.60
2019-03-20T19:16:41.185Z,14.37
2019-03-20T19:19:13.082Z,17.33
2019-03-20T19:21:43.421Z,14.30
2019-03-20T19:24:14.061Z,16.10
2019-03-20T19:26:44.530Z,17.60
2019-03-20T19:29:15.799Z,18.10
2019-03-20T19:31:46.026Z,18.20
2019-03-20T19:34:16.287Z,18.67
2019-03-20T19:36:46.742Z,16.70
2019-03-20T19:39:17.489Z,18.03
2019-03-20T19:41:48.357Z,17.47
2019-03-20T19:44:20.085Z,16.67
2019-03-20T19:46:50.757Z,19.50
2019-03-20T19:49:21.185Z,21.70
2019-03-20T19:51:51.807Z,21.07
2019-03-20T19:54:22.084Z,23.07
2019-03-20T19:56:52.406Z,23.77
2019-03-20T19:59:22.945Z,22.33
2019-03-20T20:01:53.188Z,21.20
2019-03-20T20:04:23.490Z,23.80
2019-03-20T20:06:54.011Z,22.63
2019-03-20T20:09:24.324Z,21.23
2019-03-20T20:11:55.791Z,23.40
2019-03-20T20:14:29.706Z,24.37
2019-03-20T20:17:03.958Z,25.30
2019-03-20T20:19:34.336Z,22.33
2019-03-20T20:22:04.668Z,22.70
2019-03-20T20:24:35.175Z,28.50
2019-03-20T20:27:05.715Z,25.17
2019-03-20T20:29:36.045Z,26.80
2019-03-20T20:32:06.364Z,26.17
2019-03-20T20:34:36.705Z,27.23
2019-03-20T20:37:12.423Z,28.37
2019-03-20T20:39:43.220Z,27.57
2019-03-20T20:42:15.029Z,26.93
2019-03-20T20:44:45.580Z,26.73
2019-03-20T20:47:16.071Z,29.53
2019-03-20T20:49:47.555Z,28.50
2019-03-20T20:52:19.908Z,26.07
2019-03-20T20:54:51.358Z,28.73
2019-03-20T20:57:22.441Z,27.73
2019-03-20T20:59:53.815Z,30.83
2019-03-20T21:02:24.179Z,27.17
2019-03-20T21:04:54.470Z,26.90
2019-03-20T21:07:26.612Z,24.80
2019-03-20T21:09:57.404Z,29.10
2019-03-20T21:12:28.136Z,25.40
2019-03-20T21:14:58.869Z,27.00
2019-03-20T21:17:32.090Z,26.27
2019-03-20T21:20:02.930Z,27.50
2019-03-20T21:22:36.214Z,25.73
2019-03-20T21:25:07.041Z,26.27
2019-03-20T21:28:05.918Z,26.73
2019-03-20T21:30:41.875Z,26.40
2019-03-20T21:33:33.090Z,25.90
2019-03-20T21:36:21.354Z,28.27
2019-03-20T21:38:51.695Z,25.97
2019-03-20T21:41:30.792Z,26.27
2019-03-20T21:44:15.448Z,26.33
2019-03-20T21:46:48.692Z,27.40
2019-03-20T21:49:19.120Z,26.83
2019-03-20T21:51:49.420Z,28.97
2019-03-20T21:54:39.071Z,26.93
2019-03-20T21:57:20.990Z,28.03
2019-03-20T22:00:06.544Z,25.20
2019-03-20T22:02:46.393Z,30.27
2019-03-20T22:05:23.367Z,25.63
2019-03-20T22:07:54.004Z,25.20
2019-03-20T22:10:30.268Z,26.73
2019-03-20T22:13:17.817Z,25.17
2019-03-20T22:16:01.017Z,27.53
2019-03-20T22:19:03.089Z,26.53
2019-03-20T22:22:00.444Z,28.60
2019-03-20T22:24:48.591Z,28.97
2019-03-20T22:27:30.590Z,28.90
2019-03-20T22:30:02.210Z,29.13
2019-03-20T22:32:51.919Z,28.57
2019-03-20T22:35:28.181Z,29.97
2019-03-20T22:38:00.108Z,29.13
2019-03-20T22:41:00.471Z,30.77
2019-03-20T22:43:33.663Z,31.70
2019-03-20T22:46:40.130Z,32.00
2019-03-20T22:49:47.015Z,29.67
2019-03-20T22:52:31.686Z,32.80
2019-03-20T22:55:27.495Z,31.43
2019-03-20T22:58:20.349Z,35.30
2019-03-20T23:00:53.845Z,33.70
2019-03-20T23:03:35.385Z,32.10
2019-03-20T23:06:06.414Z,33.83
2019-03-20T23:08:36.048Z,35.80
2019-03-20T23:11:05.679Z,33.33
2019-03-20T23:13:41.439Z,32.37
2019-03-20T23:16:09.889Z,32.13
2019-03-20T23:18:39.604Z,31.13
2019-03-20T23:21:09.388Z,32.00
2019-03-20T23:23:39.764Z,34.50
2019-03-20T23:26:09.561Z,33.57
2019-03-20T23:28:40.219Z,32.87
2019-03-20T23:31:09.917Z,34.43
2019-03-20T23:33:39.623Z,32.77
2019-03-20T23:36:09.278Z,33.70
2019-03-20T23:38:38.977Z,35.23
2019-03-20T23:41:08.845Z,33.10
2019-03-20T23:43:38.658Z,34.87
2019-03-20T23:46:08.449Z,35.20
2019-03-20T23:48:43.744Z,33.60
2019-03-20T23:51:19.128Z,35.40
2019-03-20T23:53:50.956Z,38.30
2019-03-20T23:56:21.146Z,35.00
2019-03-20T23:58:50.837Z,35.10
